createdAt,value
2022-12-31T00:00:38.914Z,100093.09
2022-12-31T00:03:09.800Z,100101.81
2022-12-31T00:05:37.647Z,100100.84
2022-12-31T00:08:05.193Z,100101.81
2022-12-31T00:10:39.807Z,100098.22
2022-12-31T00:13:12.083Z,100092.97
2022-12-31T00:15:41.205Z,100100.03
2022-12-31T00:18:09.322Z,100097.41
2022-12-31T00:20:42.721Z,100103.25
2022-12-31T00:23:11.514Z,100102.53
2022-12-31T00:25:38.965Z,100097.28
2022-12-31T00:28:06.323Z,100098.97
2022-12-31T00:30:34.714Z,100107.69
2022-12-31T00:33:01.961Z,100101.50
2022-12-31T00:35:29.391Z,100105.06
2022-12-31T00:37:56.635Z,100103.16
2022-12-31T00:40:23.905Z,100097.78
2022-12-31T00:42:51.221Z,100087.19
2022-12-31T00:45:18.443Z,100086.34
2022-12-31T00:47:45.684Z,100078.38
2022-12-31T00:50:13.144Z,100090.47
2022-12-31T00:52:40.338Z,100087.72
2022-12-31T00:55:08.522Z,100086.88
2022-12-31T00:57:35.791Z,100084.84
2022-12-31T01:00:04.065Z,100087.63
2022-12-31T01:02:31.710Z,100081.50
2022-12-31T01:04:58.985Z,100095.50
2022-12-31T01:07:26.317Z,100093.69
2022-12-31T01:09:53.904Z,100098.94
2022-12-31T01:12:21.183Z,100086.63
2022-12-31T01:14:48.436Z,100081.28
2022-12-31T01:17:17.258Z,100082.09
2022-12-31T01:19:44.524Z,100081.28
2022-12-31T01:22:11.824Z,100073.41
2022-12-31T01:24:39.123Z,100060.28
2022-12-31T01:27:06.437Z,100055.97
2022-12-31T01:29:33.797Z,100065.75
2022-12-31T01:32:01.036Z,100062.19
2022-12-31T01:34:28.296Z,100075.44
2022-12-31T01:36:55.527Z,100075.44
2022-12-31T01:39:22.791Z,100068.59
2022-12-31T01:41:50.095Z,100075.53
2022-12-31T01:44:26.544Z,100085.22
2022-12-31T01:47:04.175Z,100094.84
2022-12-31T01:49:44.743Z,100094.94
2022-12-31T01:52:32.661Z,100090.78
2022-12-31T01:55:16.513Z,100083.00
2022-12-31T01:57:48.139Z,100090.13
2022-12-31T02:00:16.725Z,100113.66
2022-12-31T02:02:44.833Z,100129.41
2022-12-31T02:05:49.550Z,100142.84
2022-12-31T02:08:18.101Z,100200.47
2022-12-31T02:10:48.479Z,100195.34
2022-12-31T02:13:16.315Z,100143.38
2022-12-31T02:15:50.193Z,100101.81
2022-12-31T02:18:39.301Z,100112.03
2022-12-31T02:21:28.988Z,100104.56
2022-12-31T02:24:55.459Z,100114.66
2022-12-31T02:28:32.627Z,100139.41
2022-12-31T02:31:18.861Z,100139.00
2022-12-31T02:34:05.315Z,100148.72
2022-12-31T02:36:42.777Z,100133.09
2022-12-31T02:39:13.385Z,100144.56
2022-12-31T02:41:53.753Z,100141.06
2022-12-31T02:44:32.241Z,100139.41
2022-12-31T02:47:32.242Z,100144.66
2022-12-31T02:50:31.962Z,100133.41
2022-12-31T02:53:41.057Z,100144.75
2022-12-31T02:56:28.099Z,100140.56
2022-12-31T02:59:41.650Z,100153.03
2022-12-31T03:02:16.925Z,100132.28
2022-12-31T03:04:56.436Z,100144.63
2022-12-31T03:07:33.006Z,100148.31
2022-12-31T03:10:01.359Z,100140.53
2022-12-31T03:12:48.942Z,100134.53
2022-12-31T03:15:33.206Z,100132.78
2022-12-31T03:18:17.987Z,100124.16
2022-12-31T03:21:09.432Z,100126.06
2022-12-31T03:23:50.261Z,100122.41
2022-12-31T03:26:17.549Z,100113.66
2022-12-31T03:28:48.052Z,100124.91
2022-12-31T03:31:16.460Z,100116.09
2022-12-31T03:33:43.866Z,100102.06
2022-12-31T03:36:15.449Z,100116.09
2022-12-31T03:38:42.792Z,100121.34
2022-12-31T03:41:11.909Z,100089.97
2022-12-31T03:43:39.299Z,100098.59
2022-12-31T03:46:06.833Z,100096.09
2022-12-31T03:48:34.219Z,100099.53
2022-12-31T03:51:01.402Z,100102.06
2022-12-31T03:53:28.624Z,100093.25
2022-12-31T03:55:55.912Z,100097.63
2022-12-31T03:58:23.293Z,100106.34
2022-12-31T04:00:51.195Z,100098.41
2022-12-31T04:03:19.492Z,100104.25
2022-12-31T04:05:55.323Z,100094.59
2022-12-31T04:08:23.102Z,100105.84
2022-12-31T04:10:50.792Z,100098.81
2022-12-31T04:13:18.113Z,100109.09
2022-12-31T04:15:45.854Z,100117.69
2022-12-31T04:18:14.402Z,100121.25
2022-12-31T04:20:41.559Z,100115.91
2022-12-31T04:23:08.798Z,100118.63
2022-12-31T04:25:36.015Z,100111.81
2022-12-31T04:28:03.384Z,100123.44
2022-12-31T04:30:30.560Z,100120.09
2022-12-31T04:32:57.932Z,100110.63
2022-12-31T04:35:25.461Z,100112.34
2022-12-31T04:37:52.717Z,100099.31
2022-12-31T04:40:19.971Z,100095.66
2022-12-31T04:42:47.145Z,100088.72
2022-12-31T04:45:14.396Z,100085.19
2022-12-31T04:47:41.573Z,100085.06
2022-12-31T04:50:10.390Z,100087.69
2022-12-31T04:52:42.665Z,100084.09
2022-12-31T04:55:11.005Z,100112.94
2022-12-31T04:57:38.246Z,100086.00
2022-12-31T05:00:06.659Z,100111.41
2022-12-31T05:02:34.069Z,100108.78
2022-12-31T05:05:01.447Z,100119.25
2022-12-31T05:07:28.633Z,100114.03
2022-12-31T05:09:55.927Z,100112.22
2022-12-31T05:12:23.197Z,100121.22
2022-12-31T05:14:50.387Z,100126.16
2022-12-31T05:17:17.635Z,100132.47
2022-12-31T05:19:44.856Z,100139.47
2022-12-31T05:22:30.184Z,100128.88
2022-12-31T05:25:01.266Z,100144.53
2022-12-31T05:27:31.237Z,100161.00
2022-12-31T05:29:59.823Z,100153.97
2022-12-31T05:32:27.344Z,100129.53
2022-12-31T05:34:54.706Z,100146.00
2022-12-31T05:37:22.010Z,100149.56
2022-12-31T05:39:49.438Z,100160.81
2022-12-31T05:42:16.699Z,100151.97
2022-12-31T05:44:44.050Z,100148.53
2022-12-31T05:47:11.364Z,100144.00
2022-12-31T05:49:38.693Z,100140.75
2022-12-31T05:52:06.739Z,100150.09
2022-12-31T05:54:34.405Z,100145.69
2022-12-31T05:57:01.726Z,100162.16
2022-12-31T05:59:30.094Z,100173.50
2022-12-31T06:01:57.920Z,100154.94
2022-12-31T06:04:25.651Z,100161.75
2022-12-31T06:06:53.104Z,100169.09
2022-12-31T06:09:21.054Z,100173.72
2022-12-31T06:11:49.504Z,100162.69
2022-12-31T06:14:17.471Z,100170.03
2022-12-31T06:16:44.659Z,100179.38
2022-12-31T06:19:12.025Z,100165.22
2022-12-31T06:21:39.290Z,100160.59
2022-12-31T06:24:07.343Z,100168.88
2022-12-31T06:26:34.874Z,100163.19
2022-12-31T06:29:04.924Z,100153.97
2022-12-31T06:31:32.336Z,100141.16
2022-12-31T06:34:00.511Z,100142.41
2022-12-31T06:36:27.947Z,100147.72
2022-12-31T06:38:55.505Z,100155.88
2022-12-31T06:41:22.896Z,100146.50
2022-12-31T06:43:50.164Z,100150.50
2022-12-31T06:46:21.914Z,100150.88
2022-12-31T06:48:49.243Z,100148.97
2022-12-31T06:51:21.077Z,100141.50
2022-12-31T06:53:51.647Z,100155.34
2022-12-31T06:56:33.843Z,100166.34
2022-12-31T06:59:03.424Z,100132.81
2022-12-31T07:02:09.844Z,100133.19
2022-12-31T07:05:22.478Z,100135.16
2022-12-31T07:08:31.429Z,100133.91
2022-12-31T07:11:52.623Z,100131.38
2022-12-31T07:14:46.403Z,100138.06
2022-12-31T07:17:43.567Z,100154.59
2022-12-31T07:20:16.499Z,100155.06
2022-12-31T07:22:46.109Z,100149.91
2022-12-31T07:25:18.999Z,100150.72
2022-12-31T07:28:35.262Z,100158.34
2022-12-31T07:31:33.884Z,100176.53
2022-12-31T07:34:36.887Z,100155.22
2022-12-31T07:37:34.841Z,100159.50
2022-12-31T07:40:42.711Z,100157.00
2022-12-31T07:44:00.549Z,100174.25
2022-12-31T07:46:44.745Z,100167.41
2022-12-31T07:49:14.003Z,100157.09
2022-12-31T07:51:42.792Z,100159.13
2022-12-31T07:54:14.204Z,100167.38
2022-12-31T07:56:43.944Z,100160.56
2022-12-31T08:00:01.132Z,100126.44
2022-12-31T08:02:53.533Z,100148.59
2022-12-31T08:06:09.172Z,100146.09
2022-12-31T08:09:39.543Z,100145.63
2022-12-31T08:12:09.081Z,100160.78
2022-12-31T08:14:47.908Z,100145.22
2022-12-31T08:17:18.959Z,100154.81
2022-12-31T08:19:47.058Z,100147.84
2022-12-31T08:23:01.577Z,100185.56
2022-12-31T08:25:56.996Z,100168.78
2022-12-31T08:29:19.110Z,100207.56
2022-12-31T08:32:21.729Z,100233.88
2022-12-31T08:35:31.361Z,100248.63
2022-12-31T08:38:39.528Z,100270.25
2022-12-31T08:41:43.429Z,100272.31
2022-12-31T08:44:34.524Z,100285.50
2022-12-31T08:47:35.510Z,100272.38
2022-12-31T08:50:07.657Z,100275.00
2022-12-31T08:52:35.527Z,100294.56
2022-12-31T08:55:03.452Z,100314.91
2022-12-31T08:57:50.562Z,100317.09
2022-12-31T09:00:20.577Z,100328.56
2022-12-31T09:02:59.616Z,100327.22
2022-12-31T09:05:43.381Z,100344.75
2022-12-31T09:09:01.267Z,100360.41
2022-12-31T09:12:12.186Z,100339.06
2022-12-31T09:15:06.398Z,100344.44
2022-12-31T09:17:51.072Z,100354.97
2022-12-31T09:20:42.172Z,100352.22
2022-12-31T09:23:12.140Z,100376.09
2022-12-31T09:26:21.580Z,100389.19
2022-12-31T09:29:14.729Z,100366.25
2022-12-31T09:32:34.351Z,100385.06
2022-12-31T09:35:25.694Z,100393.09
2022-12-31T09:38:31.677Z,100388.06
2022-12-31T09:41:44.736Z,100406.59
2022-12-31T09:44:55.501Z,100401.75
2022-12-31T09:48:28.159Z,100391.03
2022-12-31T09:51:12.548Z,100402.03
2022-12-31T09:54:15.852Z,100415.53
2022-12-31T09:57:53.507Z,100409.66
2022-12-31T10:01:21.586Z,100407.25
2022-12-31T10:04:56.381Z,100409.97
2022-12-31T10:08:00.854Z,100416.94
2022-12-31T10:10:50.069Z,100415.13
2022-12-31T10:14:49.100Z,100419.34
2022-12-31T10:18:14.348Z,100419.47
2022-12-31T10:21:02.074Z,100410.81
2022-12-31T10:24:08.765Z,100415.97
2022-12-31T10:27:14.159Z,100419.56
2022-12-31T10:30:11.462Z,100407.25
2022-12-31T10:33:10.595Z,100415.13
2022-12-31T10:36:19.031Z,100397.44
2022-12-31T10:39:28.263Z,100396.59
2022-12-31T10:42:40.377Z,100397.44
2022-12-31T10:46:22.801Z,100381.31
2022-12-31T10:49:22.259Z,100384.56
2022-12-31T10:52:41.509Z,100400.03
2022-12-31T10:56:00.132Z,100402.19
2022-12-31T10:58:42.180Z,100395.16
2022-12-31T11:01:30.576Z,100409.09
2022-12-31T11:05:05.402Z,100408.41
2022-12-31T11:07:41.426Z,100404.16
2022-12-31T11:10:42.797Z,100412.28
2022-12-31T11:14:26.443Z,100402.63
2022-12-31T11:17:21.223Z,100413.28
2022-12-31T11:20:29.421Z,100413.66
2022-12-31T11:23:30.917Z,100414.97
2022-12-31T11:26:46.696Z,100418.84
2022-12-31T11:29:57.882Z,100419.34
2022-12-31T11:33:14.004Z,100418.72
2022-12-31T11:36:30.381Z,100419.44
2022-12-31T11:40:01.552Z,100402.06
2022-12-31T11:43:04.908Z,100430.47
2022-12-31T11:46:16.864Z,100425.69
2022-12-31T11:48:52.753Z,100432.53
2022-12-31T11:51:52.490Z,100416.69
2022-12-31T11:55:25.910Z,100430.59
2022-12-31T11:57:54.683Z,100436.34
2022-12-31T12:00:26.744Z,100433.00
2022-12-31T12:03:06.041Z,100439.81
2022-12-31T12:05:35.504Z,100437.50
2022-12-31T12:08:03.320Z,100445.53
2022-12-31T12:10:52.681Z,100423.97
2022-12-31T12:13:28.163Z,100439.78
2022-12-31T12:16:02.659Z,100415.94
2022-12-31T12:18:47.754Z,100423.47
2022-12-31T12:21:25.404Z,100432.44
2022-12-31T12:24:16.868Z,100438.75
2022-12-31T12:26:45.521Z,100409.72
2022-12-31T12:29:26.520Z,100428.00
2022-12-31T12:32:25.618Z,100416.34
2022-12-31T12:34:53.830Z,100429.25
2022-12-31T12:37:34.497Z,100424.44
2022-12-31T12:40:22.111Z,100431.72
2022-12-31T12:42:52.756Z,100441.84
2022-12-31T12:45:36.420Z,100431.41
2022-12-31T12:48:31.324Z,100427.97
2022-12-31T12:51:00.043Z,100426.38
2022-12-31T12:53:54.879Z,100418.72
2022-12-31T12:56:47.072Z,100422.81
2022-12-31T12:59:51.738Z,100413.13
2022-12-31T13:03:07.247Z,100418.25
2022-12-31T13:06:26.239Z,100404.28
2022-12-31T13:09:55.003Z,100425.09
2022-12-31T13:13:22.133Z,100433.50
2022-12-31T13:15:47.696Z,100415.97
2022-12-31T13:18:54.875Z,100428.84
2022-12-31T13:21:59.801Z,100426.84
2022-12-31T13:24:52.227Z,100436.59
2022-12-31T13:27:45.064Z,100434.94
2022-12-31T13:30:36.968Z,100422.13
2022-12-31T13:33:26.465Z,100433.66
2022-12-31T13:36:02.048Z,100412.94
2022-12-31T13:38:34.134Z,100428.75
2022-12-31T13:41:45.335Z,100425.19
2022-12-31T13:44:32.163Z,100405.75
2022-12-31T13:47:27.462Z,100425.41
2022-12-31T13:50:26.756Z,100408.91
2022-12-31T13:53:07.129Z,100429.28
2022-12-31T13:55:56.705Z,100407.34
2022-12-31T13:59:20.736Z,100418.25
2022-12-31T14:02:18.986Z,100418.94
2022-12-31T14:04:58.580Z,100423.28
2022-12-31T14:07:57.114Z,100428.44
2022-12-31T14:11:24.408Z,100442.34
2022-12-31T14:14:54.705Z,100423.38
2022-12-31T14:17:47.960Z,100434.44
2022-12-31T14:20:52.360Z,100433.31
2022-12-31T14:23:59.142Z,100421.81
2022-12-31T14:26:50.377Z,100426.03
2022-12-31T14:29:29.899Z,100424.09
2022-12-31T14:32:48.099Z,100422.41
2022-12-31T14:35:55.140Z,100437.41
2022-12-31T14:39:02.092Z,100448.78
2022-12-31T14:42:12.239Z,100452.41
2022-12-31T14:45:00.185Z,100461.28
2022-12-31T14:48:21.558Z,100459.97
2022-12-31T14:50:50.018Z,100452.91
2022-12-31T14:53:28.408Z,100454.09
2022-12-31T14:56:29.534Z,100468.97
2022-12-31T14:59:02.479Z,100462.00
2022-12-31T15:01:30.596Z,100458.66
2022-12-31T15:03:58.737Z,100468.34
2022-12-31T15:06:47.209Z,100470.41
2022-12-31T15:10:21.877Z,100468.84
2022-12-31T15:13:19.955Z,100472.47
2022-12-31T15:16:07.976Z,100486.59
2022-12-31T15:19:16.222Z,100474.13
2022-12-31T15:22:33.615Z,100462.03
2022-12-31T15:25:01.561Z,100459.03
2022-12-31T15:27:38.502Z,100461.78
2022-12-31T15:30:07.242Z,100458.41
2022-12-31T15:32:46.710Z,100453.13
2022-12-31T15:35:20.910Z,100457.56
2022-12-31T15:38:11.341Z,100468.25
2022-12-31T15:40:51.935Z,100457.81
2022-12-31T15:43:25.254Z,100459.63
2022-12-31T15:45:56.691Z,100462.25
2022-12-31T15:48:55.433Z,100468.38
2022-12-31T15:52:01.357Z,100461.28
2022-12-31T15:54:43.016Z,100465.72
2022-12-31T15:57:29.857Z,100466.69
2022-12-31T16:00:06.076Z,100474.00
2022-12-31T16:02:33.602Z,100468.97
2022-12-31T16:05:01.191Z,100462.13
2022-12-31T16:07:29.414Z,100467.63
2022-12-31T16:10:04.168Z,100468.72
2022-12-31T16:12:44.137Z,100478.53
2022-12-31T16:15:26.361Z,100472.44
2022-12-31T16:18:20.595Z,100468.97
2022-12-31T16:20:51.983Z,100462.13
2022-12-31T16:23:30.228Z,100453.25
2022-12-31T16:26:05.429Z,100444.72
2022-12-31T16:28:35.468Z,100450.63
2022-12-31T16:31:16.805Z,100437.91
2022-12-31T16:33:46.466Z,100449.28
2022-12-31T16:36:24.092Z,100454.69
2022-12-31T16:38:52.390Z,100450.59
2022-12-31T16:41:22.135Z,100441.09
2022-12-31T16:43:50.949Z,100439.41
2022-12-31T16:46:30.959Z,100447.44
2022-12-31T16:49:21.187Z,100438.09
2022-12-31T16:51:49.665Z,100448.91
2022-12-31T16:54:44.040Z,100440.38
2022-12-31T16:57:24.676Z,100436.19
2022-12-31T17:00:04.443Z,100428.50
2022-12-31T17:02:47.768Z,100447.56
2022-12-31T17:05:26.562Z,100446.97
2022-12-31T17:07:53.997Z,100431.97
2022-12-31T17:10:34.461Z,100432.09
2022-12-31T17:13:30.204Z,100419.75
2022-12-31T17:16:00.511Z,100425.13
2022-12-31T17:18:38.545Z,100428.75
2022-12-31T17:21:11.012Z,100435.78
2022-12-31T17:23:41.021Z,100455.22
2022-12-31T17:26:23.722Z,100458.22
2022-12-31T17:28:55.370Z,100450.41
2022-12-31T17:31:57.086Z,100436.38
2022-12-31T17:34:31.020Z,100425.94
2022-12-31T17:37:14.458Z,100419.84
2022-12-31T17:39:55.352Z,100424.19
2022-12-31T17:42:38.055Z,100417.22
2022-12-31T17:45:22.336Z,100416.16
2022-12-31T17:47:53.729Z,100431.97
2022-12-31T17:50:28.629Z,100425.13
2022-12-31T17:53:12.089Z,100428.59
2022-12-31T17:55:45.432Z,100424.28
2022-12-31T17:58:30.039Z,100419.03
2022-12-31T18:00:58.745Z,100418.41
2022-12-31T18:03:26.218Z,100429.16
2022-12-31T18:05:54.141Z,100433.59
2022-12-31T18:08:21.411Z,100431.09
2022-12-31T18:10:48.966Z,100440.06
2022-12-31T18:13:23.064Z,100442.91
2022-12-31T18:15:50.921Z,100438.50
2022-12-31T18:18:25.320Z,100438.63
2022-12-31T18:21:07.971Z,100448.41
2022-12-31T18:23:46.749Z,100425.69
2022-12-31T18:26:21.765Z,100437.88
2022-12-31T18:28:50.624Z,100429.16
2022-12-31T18:31:22.210Z,100420.31
2022-12-31T18:33:52.038Z,100421.34
2022-12-31T18:36:22.490Z,100429.38
2022-12-31T18:38:50.635Z,100420.00
2022-12-31T18:41:27.753Z,100422.75
2022-12-31T18:43:55.996Z,100445.41
2022-12-31T18:46:25.303Z,100432.34
2022-12-31T18:48:52.768Z,100422.66
2022-12-31T18:51:31.392Z,100435.09
2022-12-31T18:54:01.963Z,100436.91
2022-12-31T18:56:29.514Z,100445.97
2022-12-31T18:58:56.785Z,100461.06
2022-12-31T19:01:33.286Z,100461.28
2022-12-31T19:04:27.124Z,100457.09
2022-12-31T19:06:57.289Z,100454.44
2022-12-31T19:09:44.751Z,100453.63
2022-12-31T19:12:15.259Z,100459.84
2022-12-31T19:14:42.960Z,100456.25
2022-12-31T19:19:36.696Z,100458.88
2022-12-31T19:22:03.976Z,100468.56
2022-12-31T19:24:31.866Z,100464.38
2022-12-31T19:27:01.864Z,100459.00
2022-12-31T19:29:29.206Z,100477.22
2022-12-31T19:31:58.138Z,100471.94
2022-12-31T19:34:25.519Z,100473.84
2022-12-31T19:36:52.722Z,100475.41
2022-12-31T19:39:21.695Z,100463.94
2022-12-31T19:41:56.399Z,100472.56
2022-12-31T19:44:26.008Z,100482.16
2022-12-31T19:46:53.245Z,100474.34
2022-12-31T19:49:20.522Z,100497.19
2022-12-31T19:51:47.781Z,100484.03
2022-12-31T19:54:15.115Z,100478.75
2022-12-31T19:56:42.363Z,100490.16
2022-12-31T19:59:11.533Z,100455.91
2022-12-31T20:01:39.259Z,100479.41
2022-12-31T20:04:06.882Z,100488.13
2022-12-31T20:06:34.211Z,100488.97
2022-12-31T20:09:03.620Z,100492.44
2022-12-31T20:11:31.286Z,100488.00
2022-12-31T20:13:58.690Z,100500.13
2022-12-31T20:16:33.750Z,100486.84
2022-12-31T20:19:00.998Z,100507.69
2022-12-31T20:21:29.910Z,100505.78
2022-12-31T20:23:57.339Z,100500.16
2022-12-31T20:26:26.653Z,100507.00
2022-12-31T20:28:54.504Z,100503.28
2022-12-31T20:31:26.696Z,100501.19
2022-12-31T20:33:55.215Z,100510.50
2022-12-31T20:36:23.805Z,100503.34
2022-12-31T20:38:51.298Z,100503.34
2022-12-31T20:41:22.919Z,100515.91
2022-12-31T20:43:53.725Z,100518.31
2022-12-31T20:46:28.448Z,100510.28
2022-12-31T20:49:00.908Z,100502.50
2022-12-31T20:51:31.621Z,100507.31
2022-12-31T20:54:07.595Z,100499.91
2022-12-31T20:56:40.175Z,100484.94
2022-12-31T20:59:10.121Z,100498.81
2022-12-31T21:02:18.920Z,100498.72
2022-12-31T21:04:26.089Z,100510.00
2022-12-31T21:06:53.599Z,100514.19
2022-12-31T21:09:20.854Z,100496.47
2022-12-31T21:12:06.665Z,100515.53
2022-12-31T21:14:33.867Z,100507.50
2022-12-31T21:17:02.184Z,100502.09
2022-12-31T21:19:29.335Z,100492.16
2022-12-31T21:21:56.508Z,100518.53
2022-12-31T21:24:24.223Z,100510.50
2022-12-31T21:26:56.693Z,100507.84
2022-12-31T21:29:23.943Z,100512.81
2022-12-31T21:31:51.329Z,100513.66
2022-12-31T21:34:18.533Z,100509.13
2022-12-31T21:36:45.794Z,100510.66
2022-12-31T21:39:13.138Z,100541.25
2022-12-31T21:41:52.525Z,100513.91
2022-12-31T21:44:28.734Z,100536.56
2022-12-31T21:47:39.454Z,100524.94
2022-12-31T21:50:08.651Z,100534.31
2022-12-31T21:52:36.508Z,100543.88
2022-12-31T21:55:24.371Z,100535.84
2022-12-31T21:58:24.669Z,100532.16
2022-12-31T22:00:58.787Z,100537.06
2022-12-31T22:03:29.110Z,100546.81
2022-12-31T22:06:12.405Z,100546.81
2022-12-31T22:08:42.888Z,100538.88
2022-12-31T22:11:13.204Z,100550.28
2022-12-31T22:13:41.198Z,100544.16
2022-12-31T22:16:09.465Z,100539.72
2022-12-31T22:18:40.811Z,100553.03
2022-12-31T22:21:19.270Z,100555.53
2022-12-31T22:23:53.227Z,100536.13
2022-12-31T22:26:28.644Z,100553.38
2022-12-31T22:28:59.804Z,100539.25
2022-12-31T22:31:32.621Z,100554.97
2022-12-31T22:34:00.176Z,100548.84
2022-12-31T22:36:27.411Z,100559.28
2022-12-31T22:38:58.579Z,100557.47
2022-12-31T22:41:28.264Z,100550.50
2022-12-31T22:44:03.718Z,100563.69
2022-12-31T22:46:33.283Z,100565.50
2022-12-31T22:49:03.556Z,100568.25
2022-12-31T22:51:56.485Z,100566.34
2022-12-31T22:54:19.510Z,100575.00
2022-12-31T22:56:46.731Z,100574.88
2022-12-31T22:59:14.121Z,100594.19
2022-12-31T23:01:41.416Z,100589.72
2022-12-31T23:04:09.659Z,100593.13
2022-12-31T23:06:43.583Z,100618.41
2022-12-31T23:09:37.061Z,100608.59
2022-12-31T23:12:09.800Z,100605.84
2022-12-31T23:14:56.729Z,100596.00
2022-12-31T23:17:46.240Z,100617.09
2022-12-31T23:20:38.329Z,100625.16
2022-12-31T23:23:11.507Z,100620.56
2022-12-31T23:25:52.835Z,100614.13
2022-12-31T23:28:25.793Z,100611.34
2022-12-31T23:30:53.869Z,100596.00
2022-12-31T23:33:25.898Z,100593.13
2022-12-31T23:36:06.991Z,100602.59
2022-12-31T23:38:34.320Z,100635.88
2022-12-31T23:41:11.647Z,100603.19
2022-12-31T23:43:38.932Z,100611.88
2022-12-31T23:46:06.486Z,100609.22
2022-12-31T23:48:33.894Z,100611.63
2022-12-31T23:51:01.127Z,100601.78
2022-12-31T23:53:28.371Z,100632.50
2022-12-31T23:55:55.705Z,100615.44
2022-12-31T23:58:22.948Z,100617.97
